Time;durP1;ratioP1;P1;durP2;ratioP2;P2;SDS_P1;SDS_P2;PMS_P1;PMS_P2;Temp;Humidity;BMP_temperature;BMP_pressure;BME280_temperature;BME280_humidity;BME280_pressure;Samples;Min_cycle;Max_cycle;Signal;HPM_P1;HPM_P2
2022/07/21 00:01:09;;;;;;;8.00;3.10;;;;;;;22.56;45.49;98315.87;4503002;31;20162;-82
2022/07/21 00:03:36;;;;;;;9.27;3.45;;;;;;;22.87;44.72;98319.28;4503240;31;20561;-82
2022/07/21 00:06:04;;;;;;;8.15;3.08;;;;;;;23.04;44.44;98314.19;4503406;31;20146;-82
2022/07/21 00:08:31;;;;;;;9.70;3.10;;;;;;;22.80;44.73;98311.91;4502954;31;20100;-82
2022/07/21 00:10:57;;;;;;;10.93;3.35;;;;;;;22.52;45.71;98315.28;4503425;31;20127;-83
2022/07/21 00:13:24;;;;;;;9.80;3.47;;;;;;;22.72;45.32;98308.28;4503124;31;20175;-82
2022/07/21 00:15:52;;;;;;;10.48;3.83;;;;;;;22.79;45.20;98315.50;4502755;31;20083;-82
2022/07/21 00:18:19;;;;;;;9.32;3.53;;;;;;;22.60;45.84;98307.56;4503021;31;20172;-82
2022/07/21 00:20:47;;;;;;;9.90;3.40;;;;;;;22.74;45.53;98308.97;4503257;31;20087;-82
2022/07/21 00:23:13;;;;;;;12.27;3.67;;;;;;;22.81;45.32;98308.31;4502823;31;20148;-82
2022/07/21 00:25:40;;;;;;;10.82;3.58;;;;;;;22.68;45.83;98314.78;4501767;31;20369;-82
2022/07/21 00:28:07;;;;;;;7.15;3.30;;;;;;;22.72;45.68;98306.47;4502775;31;20559;-82
2022/07/21 00:30:34;;;;;;;8.82;3.30;;;;;;;22.57;46.41;98302.59;4502769;31;20147;-82
2022/07/21 00:33:01;;;;;;;14.15;3.72;;;;;;;22.46;46.67;98313.22;4503164;31;20098;-82
2022/07/21 00:35:29;;;;;;;7.90;3.53;;;;;;;22.32;47.01;98308.31;4502659;31;20106;-82
2022/07/21 00:37:56;;;;;;;9.48;3.40;;;;;;;22.06;47.30;98302.63;4502779;31;20110;-83
2022/07/21 00:40:24;;;;;;;13.45;3.65;;;;;;;21.84;48.14;98306.25;4503150;31;20127;-82
2022/07/21 00:42:51;;;;;;;9.55;3.75;;;;;;;22.07;47.91;98297.28;4502716;31;20174;-82
2022/07/21 00:45:18;;;;;;;8.90;3.50;;;;;;;21.82;48.47;98300.31;4502930;31;20859;-82
2022/07/21 00:47:45;;;;;;;13.88;4.22;;;;;;;21.95;48.28;98298.31;4502938;31;20473;-82
2022/07/21 00:50:17;;;;;;;9.95;3.47;;;;;;;21.64;49.22;98303.53;4502543;31;20154;-82
2022/07/21 00:52:46;;;;;;;9.77;3.60;;;;;;;21.78;48.97;98304.16;4502991;31;20102;-83
2022/07/21 00:55:15;;;;;;;9.77;3.45;;;;;;;22.09;47.92;98300.59;4502699;31;20379;-82
2022/07/21 00:57:43;;;;;;;14.45;3.83;;;;;;;22.19;47.84;98298.03;4502389;31;20107;-82
2022/07/21 01:00:13;;;;;;;8.45;3.78;;;;;;;22.07;48.02;98299.91;4502783;31;20130;-82
2022/07/21 01:02:40;;;;;;;8.70;4.10;;;;;;;22.07;48.00;98304.34;4502751;31;20131;-82
2022/07/21 01:05:14;;;;;;;9.93;3.40;;;;;;;22.05;48.14;98301.81;4502289;31;20080;-82
2022/07/21 01:07:43;;;;;;;10.18;3.62;;;;;;;22.12;48.07;98305.62;4502624;31;20100;-82
2022/07/21 01:10:11;;;;;;;7.70;3.40;;;;;;;21.92;48.68;98303.81;4502397;31;20491;-82
2022/07/21 01:12:39;;;;;;;7.10;3.28;;;;;;;21.44;50.75;98298.25;4502606;31;20427;-82
2022/07/21 01:15:07;;;;;;;9.27;3.45;;;;;;;21.56;50.34;98302.50;4502424;31;20147;-82
2022/07/21 01:17:35;;;;;;;11.00;3.95;;;;;;;21.50;50.46;98310.91;4502108;31;20144;-82
2022/07/21 01:20:06;;;;;;;7.45;3.35;;;;;;;21.63;50.07;98301.84;4502472;31;20147;-82
2022/07/21 01:22:35;;;;;;;8.68;3.53;;;;;;;21.44;50.95;98311.38;4502521;31;20084;-82
2022/07/21 01:25:03;;;;;;;9.98;3.58;;;;;;;21.32;50.99;98315.87;4501726;31;20413;-82
2022/07/21 01:27:30;;;;;;;11.35;3.50;;;;;;;21.27;50.74;98305.75;4502197;31;20167;-82
2022/07/21 01:29:57;;;;;;;8.82;3.85;;;;;;;20.97;51.79;98303.81;4502423;31;20092;-82
2022/07/21 01:32:25;;;;;;;8.65;3.30;;;;;;;20.59;53.51;98292.94;4501914;31;20100;-82
2022/07/21 01:34:52;;;;;;;9.60;3.37;;;;;;;20.77;53.22;98300.16;4502232;31;20148;-83
2022/07/21 01:37:23;;;;;;;8.43;3.78;;;;;;;20.98;52.93;98294.16;4502229;31;20088;-83
2022/07/21 01:42:36;;;;;;;9.18;3.92;;;;;;;21.40;50.54;98304.75;4502443;31;20099;-82
2022/07/21 01:45:05;;;;;;;12.13;4.00;;;;;;;21.21;52.18;98305.38;4504278;31;20139;-82
2022/07/21 01:47:32;;;;;;;9.52;3.70;;;;;;;21.35;51.76;98308.56;4504326;31;20111;-83
2022/07/21 01:49:59;;;;;;;12.05;3.83;;;;;;;21.23;52.40;98304.28;4504421;31;20106;-83
2022/07/21 01:52:26;;;;;;;9.25;3.45;;;;;;;21.37;51.56;98304.03;4503875;31;20434;-82
2022/07/21 01:54:53;;;;;;;10.75;3.58;;;;;;;21.08;52.39;98300.31;4504157;31;20076;-82
2022/07/21 01:57:20;;;;;;;8.38;3.72;;;;;;;21.02;52.79;98303.41;4504305;31;20132;-82
2022/07/21 01:59:47;;;;;;;8.60;3.50;;;;;;;20.82;53.23;98298.94;4503644;31;20083;-82
2022/07/21 02:02:14;;;;;;;9.80;3.50;;;;;;;21.00;52.17;98298.31;4504260;31;20405;-82
2022/07/21 02:04:41;;;;;;;7.30;3.22;;;;;;;20.51;54.04;98299.59;4504086;31;20088;-83
2022/07/21 02:07:08;;;;;;;9.50;3.50;;;;;;;20.87;53.16;98300.25;4503877;31;20143;-82
2022/07/21 02:09:35;;;;;;;9.73;3.85;;;;;;;20.88;53.16;98299.31;4504130;31;20155;-83
2022/07/21 02:12:03;;;;;;;6.80;3.40;;;;;;;21.10;53.13;98308.87;4504193;31;20139;-83
2022/07/21 02:14:30;;;;;;;11.23;3.35;;;;;;;21.06;53.23;98303.06;4503600;31;20461;-82
2022/07/21 02:16:57;;;;;;;13.88;4.45;;;;;;;21.06;53.38;98304.84;4504026;31;20088;-82
2022/07/21 02:19:24;;;;;;;12.23;3.90;;;;;;;21.13;53.68;98303.38;4503965;31;20100;-83
2022/07/21 02:21:51;;;;;;;9.32;3.30;;;;;;;21.04;53.93;98298.88;4502691;31;20088;-82
2022/07/21 02:24:18;;;;;;;8.00;3.47;;;;;;;20.93;53.80;98294.50;4503862;31;20097;-82
2022/07/21 02:26:45;;;;;;;11.43;3.85;;;;;;;20.71;54.63;98287.53;4504038;31;20092;-83
2022/07/21 02:29:12;;;;;;;8.15;3.03;;;;;;;20.77;54.40;98283.59;4503647;31;20096;-83
2022/07/21 02:31:39;;;;;;;10.60;3.70;;;;;;;21.03;53.56;98284.94;4503959;31;20119;-83
2022/07/21 02:34:06;;;;;;;8.68;3.47;;;;;;;21.30;52.92;98275.78;4503843;31;20102;-82
2022/07/21 02:36:34;;;;;;;13.80;3.30;;;;;;;21.24;52.75;98284.13;4503646;31;20106;-83
2022/07/21 02:39:01;;;;;;;7.47;3.47;;;;;;;21.00;53.69;98287.81;4503650;31;20150;-82
2022/07/21 02:41:28;;;;;;;12.77;3.50;;;;;;;20.99;53.61;98288.78;4503527;31;20084;-82
2022/07/21 02:43:55;;;;;;;7.65;3.60;;;;;;;20.74;54.56;98286.47;4503839;31;20143;-83
2022/07/21 02:46:22;;;;;;;9.48;3.53;;;;;;;20.79;55.10;98297.41;4503774;31;20152;-82
2022/07/21 02:48:49;;;;;;;7.57;3.33;;;;;;;20.61;55.02;98289.22;4503465;31;20096;-82
2022/07/21 02:51:16;;;;;;;7.35;3.30;;;;;;;20.63;55.45;98297.81;4502749;31;20092;-82
2022/07/21 02:53:44;;;;;;;9.82;3.25;;;;;;;20.50;55.49;98289.25;4503582;31;20076;-83
2022/07/21 02:56:11;;;;;;;10.90;3.30;;;;;;;20.23;56.02;98289.62;4503511;31;20092;-82
2022/07/21 02:58:38;;;;;;;10.82;3.40;;;;;;;20.60;54.74;98298.06;4503677;31;20087;-82
2022/07/21 03:01:05;;;;;;;9.13;3.60;;;;;;;20.15;56.11;98295.44;4503786;31;20144;-83
2022/07/21 03:03:34;;;;;;;8.90;3.25;;;;;;;20.09;56.46;98297.69;4503388;31;20080;-82
2022/07/21 03:06:02;;;;;;;8.25;3.20;;;;;;;20.15;56.48;98292.00;4502542;31;20104;-82
2022/07/21 03:08:30;;;;;;;7.00;3.40;;;;;;;20.03;57.12;98303.44;4503695;31;20476;-83
2022/07/21 03:10:57;;;;;;;9.13;3.35;;;;;;;20.68;54.96;98300.91;4503392;31;20147;-82
2022/07/21 03:13:24;;;;;;;12.25;3.60;;;;;;;20.58;54.73;98307.84;4503700;31;20156;-82
2022/07/21 03:15:51;;;;;;;9.98;3.37;;;;;;;20.80;53.86;98301.69;4503699;31;20107;-83
2022/07/21 03:18:18;;;;;;;9.45;3.17;;;;;;;20.67;54.55;98299.25;4503222;31;20146;-83
2022/07/21 03:20:45;;;;;;;9.65;3.25;;;;;;;20.57;54.74;98300.94;4503755;31;20143;-83
2022/07/21 03:23:12;;;;;;;7.50;3.40;;;;;;;20.80;54.08;98299.09;4503677;31;20203;-82
2022/07/21 03:25:39;;;;;;;9.85;3.37;;;;;;;20.65;54.28;98301.16;4501832;31;20111;-82
2022/07/21 03:28:07;;;;;;;11.12;3.30;;;;;;;20.26;55.82;98296.41;4503576;31;20194;-83
2022/07/21 03:30:34;;;;;;;12.00;3.70;;;;;;;20.09;56.69;98300.31;4503204;31;20147;-82
2022/07/21 03:33:01;;;;;;;8.02;3.17;;;;;;;20.36;55.99;98292.94;4503595;31;20129;-83
2022/07/21 03:35:28;;;;;;;10.05;3.60;;;;;;;20.62;55.31;98290.06;4503532;31;20112;-82
2022/07/21 03:37:57;;;;;;;10.05;3.50;;;;;;;20.61;55.88;98293.63;4503231;31;20548;-82
2022/07/21 03:40:27;;;;;;;12.07;4.05;;;;;;;20.65;56.08;98303.78;4503473;31;20094;-82
2022/07/21 03:42:55;;;;;;;8.82;3.50;;;;;;;20.44;56.64;98301.06;4503497;31;20107;-82
2022/07/21 03:45:23;;;;;;;10.38;3.75;;;;;;;20.44;55.85;98297.62;4503056;31;20103;-83
2022/07/21 03:47:51;;;;;;;14.23;4.35;;;;;;;20.49;56.25;98295.44;4503414;31;20374;-82
2022/07/21 03:50:18;;;;;;;13.35;3.85;;;;;;;20.53;58.26;98301.31;4503466;31;20604;-82
2022/07/21 03:52:46;;;;;;;7.82;3.50;;;;;;;20.57;56.41;98300.94;4503191;31;20088;-82
2022/07/21 03:55:18;;;;;;;6.80;3.40;;;;;;;20.79;54.93;98303.50;4503131;31;20124;-82
2022/07/21 03:57:46;;;;;;;10.38;3.20;;;;;;;20.76;55.67;98298.50;4503391;31;20438;-83
2022/07/21 04:00:17;;;;;;;8.00;3.47;;;;;;;21.00;54.47;98302.72;4503010;31;20186;-83
2022/07/21 04:02:44;;;;;;;8.85;3.08;;;;;;;21.49;52.97;98302.19;4503414;31;20068;-82
2022/07/21 04:05:12;;;;;;;7.12;3.08;;;;;;;21.83;52.17;98297.56;4502838;31;20172;-82
2022/07/21 04:07:41;;;;;;;8.05;3.05;;;;;;;22.19;50.40;98311.16;4502835;31;20163;-82
2022/07/21 04:10:10;;;;;;;11.18;3.20;;;;;;;22.64;48.85;98314.22;4503380;31;20114;-83
2022/07/21 04:12:38;;;;;;;7.57;2.72;;;;;;;23.21;47.19;98307.41;4503032;31;20092;-82
2022/07/21 04:15:07;;;;;;;9.50;3.33;;;;;;;23.88;45.74;98310.94;4503191;31;20151;-82
2022/07/21 04:17:34;;;;;;;7.75;3.17;;;;;;;24.32;43.91;98308.59;4503217;31;20496;-83
2022/07/21 04:20:02;;;;;;;8.13;3.20;;;;;;;24.81;43.14;98316.13;4502747;31;20113;-82
2022/07/21 04:22:29;;;;;;;7.15;3.10;;;;;;;25.17;41.98;98317.97;4503258;31;20093;-82
2022/07/21 04:24:56;;;;;;;7.55;2.78;;;;;;;25.46;41.22;98317.75;4503010;31;20114;-82
2022/07/21 04:27:23;;;;;;;10.35;2.60;;;;;;;26.04;39.86;98317.16;4502807;31;20100;-82
2022/07/21 04:29:50;;;;;;;9.68;2.72;;;;;;;26.58;39.28;98329.19;4503086;31;20152;-82
2022/07/21 04:32:17;;;;;;;12.07;2.83;;;;;;;27.10;38.50;98321.09;4503183;31;20106;-82
2022/07/21 04:34:45;;;;;;;11.60;2.72;;;;;;;27.53;37.42;98335.84;4502642;31;20104;-81
2022/07/21 04:37:12;;;;;;;9.85;2.65;;;;;;;28.00;36.29;98332.53;4503648;31;20151;-81
2022/07/21 04:39:39;;;;;;;6.25;2.62;;;;;;;28.34;35.35;98331.47;4502857;31;20143;-81
2022/07/21 04:42:06;;;;;;;8.82;2.47;;;;;;;28.79;34.51;98330.78;4502602;31;20167;-81
2022/07/21 04:44:33;;;;;;;8.27;2.28;;;;;;;29.33;33.94;98334.28;4502745;31;20494;-78
2022/07/21 04:47:00;;;;;;;7.30;2.42;;;;;;;29.67;32.97;98339.22;4502953;31;20457;-78
2022/07/21 04:49:27;;;;;;;7.60;2.42;;;;;;;30.21;32.24;98331.06;4502547;31;20108;-78
2022/07/21 04:51:54;;;;;;;7.45;2.20;;;;;;;30.49;31.32;98338.38;4502873;31;20174;-78
2022/07/21 04:54:28;;;;;;;6.68;2.33;;;;;;;30.86;31.09;98336.62;4502789;31;20555;-79
2022/07/21 04:56:55;;;;;;;6.10;2.70;;;;;;;31.29;29.97;98334.84;4502495;31;20109;-79
2022/07/21 04:59:22;;;;;;;29.65;5.60;;;;;;;32.37;28.36;98331.81;4502680;31;20098;-79
2022/07/21 05:01:49;;;;;;;14.05;3.80;;;;;;;33.04;28.17;98332.91;4502498;31;20468;-79
2022/07/21 05:04:16;;;;;;;14.60;3.92;;;;;;;33.61;27.60;98337.75;4502622;31;20111;-79
2022/07/21 05:06:43;;;;;;;13.90;3.80;;;;;;;34.57;26.26;98344.47;4502736;31;20158;-79
2022/07/21 05:09:10;;;;;;;12.85;3.70;;;;;;;35.50;25.44;98344.81;4502222;31;20166;-79
2022/07/21 05:11:37;;;;;;;9.95;2.83;;;;;;;36.19;24.73;98352.69;4502712;31;20088;-79
2022/07/21 05:14:04;;;;;;;19.42;3.37;;;;;;;36.86;23.99;98352.81;4502410;31;20443;-79
2022/07/21 05:16:41;;;;;;;15.50;3.70;;;;;;;37.47;23.43;98356.31;4501241;31;20123;-79
2022/07/21 05:19:09;;;;;;;12.68;3.42;;;;;;;38.16;22.57;98350.19;4503797;31;20151;-79
2022/07/21 05:21:36;;;;;;;14.52;4.28;;;;;;;38.48;22.54;98352.50;4504642;31;20410;-79
2022/07/21 05:24:03;;;;;;;18.02;3.85;;;;;;;39.08;21.90;98354.00;4503896;31;20100;-79
2022/07/21 05:26:31;;;;;;;12.37;3.58;;;;;;;39.65;21.63;98370.97;4504574;31;20489;-79
2022/07/21 05:28:58;;;;;;;16.73;3.50;;;;;;;40.29;21.11;98357.91;4504384;31;20102;-79
2022/07/21 05:31:25;;;;;;;8.77;3.20;;;;;;;40.59;21.12;98362.09;4504106;31;20088;-79
2022/07/21 05:33:52;;;;;;;13.13;3.30;;;;;;;40.82;20.96;98367.25;4504313;31;20370;-79
2022/07/21 05:36:19;;;;;;;9.45;2.92;;;;;;;41.23;20.26;98368.53;4504431;31;20696;-79
2022/07/21 05:38:47;;;;;;;5.95;2.58;;;;;;;41.82;19.18;98370.47;4503855;31;20097;-79
2022/07/21 05:41:14;;;;;;;7.12;2.35;;;;;;;42.22;18.09;98371.81;4504289;31;20217;-79
2022/07/21 05:43:41;;;;;;;10.63;2.60;;;;;;;42.14;17.84;98379.38;4503961;31;20171;-79
2022/07/21 05:46:08;;;;;;;10.77;2.58;;;;;;;42.43;16.71;98373.56;4504374;31;20155;-79
2022/07/21 05:48:35;;;;;;;6.35;2.33;;;;;;;41.51;17.12;98383.72;4504348;31;20092;-87
2022/07/21 05:51:02;;;;;;;6.43;2.50;;;;;;;42.43;16.21;98376.28;4504235;31;20148;-84
2022/07/21 05:53:29;;;;;;;12.57;2.70;;;;;;;41.52;17.01;98390.78;4504271;31;20146;-83
2022/07/21 05:55:56;;;;;;;9.95;2.50;;;;;;;40.60;17.56;98385.37;4504172;31;20163;-82
2022/07/21 05:58:24;;;;;;;6.05;2.20;;;;;;;40.85;17.11;98372.22;4503810;31;20076;-81
2022/07/21 06:01:09;;;;;;;4.78;2.25;;;;;;;40.04;17.40;98373.78;4504042;31;20140;-81
2022/07/21 06:03:42;;;;;;;8.68;2.40;;;;;;;38.33;18.85;98369.19;4504228;31;20645;-82
2022/07/21 06:06:10;;;;;;;7.28;2.30;;;;;;;38.42;18.32;98361.56;4504749;31;20136;-82
2022/07/21 06:08:38;;;;;;;4.47;2.30;;;;;;;38.53;18.33;98368.81;4505775;31;20147;-78
2022/07/21 06:11:09;;;;;;;8.98;2.25;;;;;;;38.08;18.83;98364.03;4504181;31;20125;-79
2022/07/21 06:13:36;;;;;;;6.90;2.12;;;;;;;37.61;19.49;98365.81;4503486;31;20130;-79
2022/07/21 06:16:04;;;;;;;6.68;2.05;;;;;;;37.57;19.58;98361.97;4503935;31;20091;-79
2022/07/21 06:18:31;;;;;;;5.68;2.30;;;;;;;37.03;19.66;98372.66;4503900;31;20163;-78
2022/07/21 06:20:58;;;;;;;5.93;2.10;;;;;;;37.55;18.95;98359.50;4503637;31;20120;-79
2022/07/21 06:23:26;;;;;;;20.27;2.83;;;;;;;36.73;19.90;98372.59;4503953;31;20175;-78
2022/07/21 06:25:53;;;;;;;8.73;2.20;;;;;;;36.98;20.71;98371.66;4503565;31;20481;-78
2022/07/21 06:28:20;;;;;;;5.53;2.17;;;;;;;36.86;19.50;98365.44;4503561;31;20088;-79
2022/07/21 06:30:48;;;;;;;5.25;2.10;;;;;;;37.16;19.96;98363.56;4503986;31;20089;-79
2022/07/21 06:33:15;;;;;;;6.00;2.22;;;;;;;36.98;20.05;98372.50;4503585;31;20402;-78
2022/07/21 06:35:43;;;;;;;6.97;2.40;;;;;;;37.42;19.28;98362.37;4503904;31;20087;-78
2022/07/21 06:38:10;;;;;;;5.85;2.28;;;;;;;37.14;19.41;98376.44;4503892;31;20179;-79
2022/07/21 06:40:40;;;;;;;6.07;2.37;;;;;;;36.75;19.76;98373.16;4503525;31;20080;-78
2022/07/21 06:43:09;;;;;;;4.78;2.05;;;;;;;36.43;19.32;98363.63;4503927;31;20377;-78
2022/07/21 06:45:55;;;;;;;12.02;2.50;;;;;;;36.21;19.69;98360.53;4503853;31;20156;-78
2022/07/21 06:48:24;;;;;;;7.47;2.55;;;;;;;34.66;21.63;98361.91;4503209;31;20152;-79
2022/07/21 06:50:52;;;;;;;8.65;2.30;;;;;;;35.13;21.39;98355.34;4503756;31;20456;-78
2022/07/21 06:53:19;;;;;;;6.62;2.20;;;;;;;35.09;21.87;98362.16;4503739;31;20096;-80
2022/07/21 06:55:46;;;;;;;4.87;2.17;;;;;;;35.43;20.97;98357.47;4502193;31;20533;-78
2022/07/21 06:58:15;;;;;;;10.90;2.30;;;;;;;35.35;21.13;98364.69;4503499;31;20160;-78
2022/07/21 07:00:44;;;;;;;8.95;2.85;;;;;;;36.02;20.08;98358.84;4505459;31;20442;-78
2022/07/21 07:03:11;;;;;;;6.07;2.50;;;;;;;34.73;21.25;98362.72;4503083;31;20712;-78
2022/07/21 07:05:39;;;;;;;8.25;2.17;;;;;;;35.46;20.40;98360.53;4503360;31;20493;-78
2022/07/21 07:08:07;;;;;;;9.60;2.22;;;;;;;34.84;21.76;98363.91;4502868;31;20104;-77
2022/07/21 07:10:41;;;;;;;9.98;2.35;;;;;;;35.58;20.44;98360.66;4503577;31;20080;-77
2022/07/21 07:13:08;;;;;;;9.40;2.87;;;;;;;36.27;20.05;98370.41;4503110;31;20430;-77
2022/07/21 07:15:55;;;;;;;7.03;2.30;;;;;;;36.37;20.56;98365.38;4501866;31;20084;-77
2022/07/21 07:18:23;;;;;;;4.15;2.20;;;;;;;36.81;19.45;98358.03;4502102;31;20156;-77
2022/07/21 07:20:51;;;;;;;7.87;2.22;;;;;;;35.90;20.37;98362.25;4503334;31;20088;-77
2022/07/21 07:23:19;;;;;;;7.07;2.17;;;;;;;35.17;21.06;98358.41;4503013;31;20112;-77
2022/07/21 07:25:46;;;;;;;9.00;2.60;;;;;;;35.72;20.72;98364.03;4503165;31;20115;-77
2022/07/21 07:28:13;;;;;;;9.80;2.50;;;;;;;36.16;20.13;98355.00;4503219;31;20151;-78
2022/07/21 07:30:40;;;;;;;6.10;2.22;;;;;;;36.48;19.62;98367.31;4501813;31;20147;-77
2022/07/21 07:33:07;;;;;;;6.87;2.55;;;;;;;36.53;19.67;98360.44;4502790;31;20156;-77
2022/07/21 07:35:34;;;;;;;11.75;2.60;;;;;;;36.85;19.30;98359.22;4503273;31;20080;-78
2022/07/21 07:38:02;;;;;;;5.47;2.20;;;;;;;37.48;18.68;98355.25;4502782;31;20572;-77
2022/07/21 07:40:29;;;;;;;5.05;2.42;;;;;;;37.35;18.98;98359.81;4502216;31;20100;-77
2022/07/21 07:42:57;;;;;;;6.10;2.20;;;;;;;37.90;18.01;98356.88;4502872;31;20149;-77
2022/07/21 07:45:36;;;;;;;8.77;2.60;;;;;;;36.94;19.20;98355.19;4502180;31;20144;-77
2022/07/21 07:48:04;;;;;;;5.82;2.45;;;;;;;37.27;18.52;98351.19;4503260;31;20154;-78
2022/07/21 07:50:31;;;;;;;12.95;2.70;;;;;;;36.72;19.19;98348.63;4502906;31;20451;-77
2022/07/21 07:52:58;;;;;;;10.07;2.12;;;;;;;36.73;18.71;98345.69;4503122;31;20111;-77
2022/07/21 07:55:25;;;;;;;6.12;2.10;;;;;;;37.12;18.30;98337.38;4503025;31;20148;-77
2022/07/21 07:57:52;;;;;;;6.55;2.28;;;;;;;37.46;17.81;98343.91;4502868;31;20150;-78
2022/07/21 08:00:19;;;;;;;6.05;2.30;;;;;;;37.84;17.42;98338.13;4502975;31;20651;-78
2022/07/21 08:03:07;;;;;;;7.68;2.30;;;;;;;38.68;16.74;98344.88;4501852;31;20100;-78
2022/07/21 08:05:34;;;;;;;6.50;2.50;;;;;;;39.37;16.16;98346.72;4502674;31;20110;-77
2022/07/21 08:08:01;;;;;;;7.60;2.40;;;;;;;38.92;16.63;98333.97;4503005;31;20175;-78
2022/07/21 08:10:28;;;;;;;9.80;2.25;;;;;;;39.57;16.82;98347.09;4501948;31;20396;-79
2022/07/21 08:13:08;;;;;;;7.75;2.45;;;;;;;39.23;16.74;98344.31;4502746;31;20149;-78
2022/07/21 08:15:36;;;;;;;5.93;2.30;;;;;;;39.27;16.42;98342.78;4503100;31;20502;-79
2022/07/21 08:18:04;;;;;;;8.02;2.33;;;;;;;39.20;16.04;98335.88;4502557;31;20429;-77
2022/07/21 08:20:31;;;;;;;5.72;2.30;;;;;;;38.71;16.45;98338.19;4502957;31;20132;-78
2022/07/21 08:22:58;;;;;;;7.85;2.37;;;;;;;39.01;15.87;98337.94;4502995;31;20108;-78
2022/07/21 08:25:25;;;;;;;7.78;2.37;;;;;;;37.90;17.36;98323.72;4501168;31;20118;-77
2022/07/21 08:27:52;;;;;;;8.88;2.30;;;;;;;37.83;17.51;98325.72;4502790;31;20104;-78
2022/07/21 08:30:19;;;;;;;8.02;2.20;;;;;;;38.90;16.53;98328.03;4502953;31;20126;-78
2022/07/21 08:32:51;;;;;;;7.20;2.20;;;;;;;37.79;17.13;98321.88;4502601;31;20111;-78
2022/07/21 08:35:18;;;;;;;7.45;2.37;;;;;;;38.03;16.59;98333.44;4502640;31;20414;-77
2022/07/21 08:37:58;;;;;;;6.70;2.30;;;;;;;37.91;16.66;98328.06;4502899;31;20102;-78
2022/07/21 08:40:28;;;;;;;5.15;2.10;;;;;;;38.01;17.07;98324.78;4501241;31;20080;-78
2022/07/21 08:42:55;;;;;;;6.82;2.60;;;;;;;38.59;16.49;98329.28;4502882;31;20107;-77
2022/07/21 08:45:22;;;;;;;7.93;2.08;;;;;;;38.73;16.31;98331.50;4502660;31;20174;-77
2022/07/21 08:47:54;;;;;;;6.47;2.70;;;;;;;38.61;16.01;98324.47;4502332;31;20171;-77
2022/07/21 08:50:27;;;;;;;5.72;2.40;;;;;;;39.22;15.84;98328.38;4501508;31;20468;-76
2022/07/21 08:52:54;;;;;;;9.75;2.30;;;;;;;39.04;15.76;98327.50;4501203;31;20160;-77
2022/07/21 08:55:31;;;;;;;8.05;2.42;;;;;;;39.81;14.98;98326.94;4502254;31;20108;-76
2022/07/21 08:57:58;;;;;;;8.35;2.40;;;;;;;40.20;15.08;98324.28;4502629;31;20190;-77
2022/07/21 09:00:25;;;;;;;6.85;2.40;;;;;;;39.67;15.74;98322.97;4502236;31;20076;-76
2022/07/21 09:03:16;;;;;;;4.85;2.42;;;;;;;40.13;14.75;98329.88;4502619;31;20096;-76
2022/07/21 09:06:02;;;;;;;5.68;2.33;;;;;;;39.02;15.83;98320.69;4488333;31;20526;-77
2022/07/21 09:08:31;;;;;;;4.57;2.25;;;;;;;38.91;16.26;98322.38;4502161;31;20155;-76
2022/07/21 09:11:12;;;;;;;5.22;2.42;;;;;;;38.29;16.41;98326.78;4502452;31;20092;-77
2022/07/21 09:13:40;;;;;;;5.82;2.37;;;;;;;38.33;16.32;98309.91;4502353;31;20163;-77
2022/07/21 09:16:07;;;;;;;8.93;2.60;;;;;;;38.82;16.09;98314.94;4502102;31;20099;-76
2022/07/21 09:18:47;;;;;;;7.78;2.20;;;;;;;39.85;15.45;98311.88;4502265;31;20106;-77
2022/07/21 09:21:16;;;;;;;8.05;2.60;;;;;;;40.17;15.70;98322.06;4501690;31;20080;-77
2022/07/21 09:23:43;;;;;;;8.98;2.80;;;;;;;40.46;14.52;98320.88;4502260;31;20183;-77
2022/07/21 09:26:10;;;;;;;8.02;2.45;;;;;;;39.27;15.75;98313.09;4502065;31;20114;-76
2022/07/21 09:28:37;;;;;;;7.80;2.47;;;;;;;39.92;15.54;98312.53;4501838;31;20493;-77
2022/07/21 09:31:07;;;;;;;9.85;2.50;;;;;;;39.53;16.14;98314.31;4500992;31;20392;-77
2022/07/21 09:33:43;;;;;;;6.00;2.37;;;;;;;39.91;15.57;98313.59;4500950;31;20100;-77
2022/07/21 09:36:13;;;;;;;9.60;2.62;;;;;;;40.29;15.29;98317.34;4501692;31;20171;-76
2022/07/21 09:38:50;;;;;;;9.00;2.50;;;;;;;39.92;15.44;98317.09;4501977;31;20103;-77
2022/07/21 09:41:24;;;;;;;10.35;3.20;;;;;;;39.18;16.20;98313.72;4501849;31;20098;-77
2022/07/21 09:43:53;;;;;;;7.70;2.50;;;;;;;40.06;15.42;98309.50;4501512;31;20132;-77
2022/07/21 09:46:25;;;;;;;5.53;2.40;;;;;;;39.44;16.95;98313.09;4502059;31;20156;-77
2022/07/21 09:48:54;;;;;;;6.85;2.28;;;;;;;39.62;16.10;98314.75;4501990;31;20099;-77
2022/07/21 09:51:43;;;;;;;5.95;2.47;;;;;;;39.09;16.11;98302.47;4500806;31;20125;-77
2022/07/21 09:54:12;;;;;;;5.00;2.33;;;;;;;40.25;15.65;98304.59;4501691;31;20414;-77
2022/07/21 09:56:43;;;;;;;6.82;2.60;;;;;;;40.12;15.48;98303.09;4501631;31;20155;-76
2022/07/21 09:59:11;;;;;;;9.40;2.45;;;;;;;39.92;16.49;98307.13;4501739;31;20106;-77
2022/07/21 10:01:39;;;;;;;7.28;2.45;;;;;;;40.42;15.27;98303.53;4501592;31;20100;-77
2022/07/21 10:04:06;;;;;;;7.15;2.62;;;;;;;40.32;16.08;98316.06;4501808;31;20134;-77
2022/07/21 10:06:38;;;;;;;7.90;2.60;;;;;;;40.29;16.30;98311.13;4504144;31;20114;-77
2022/07/21 10:09:08;;;;;;;9.10;2.67;;;;;;;39.66;18.05;98306.97;4502713;31;20091;-78
2022/07/21 10:11:39;;;;;;;6.97;2.65;;;;;;;38.75;18.14;98301.59;4503631;31;20418;-77
2022/07/21 10:14:10;;;;;;;8.10;2.60;;;;;;;39.01;18.25;98301.00;4502632;31;20100;-80
2022/07/21 10:16:37;;;;;;;10.07;3.00;;;;;;;38.66;18.44;98298.44;4502894;31;20122;-77
2022/07/21 10:19:15;;;;;;;6.93;2.72;;;;;;;37.87;18.74;98292.72;4503467;31;20166;-78
2022/07/21 10:22:04;;;;;;;8.75;2.67;;;;;;;38.42;18.12;98297.69;4502710;31;20493;-79
2022/07/21 10:24:31;;;;;;;9.68;2.70;;;;;;;38.65;18.74;98291.41;4503433;31;20421;-78
2022/07/21 10:27:04;;;;;;;11.75;2.80;;;;;;;38.48;18.20;98293.19;4502944;31;20517;-77
2022/07/21 10:29:52;;;;;;;5.72;2.60;;;;;;;37.28;19.74;98290.97;4503834;31;20117;-77
2022/07/21 10:32:32;;;;;;;8.35;2.55;;;;;;;38.28;18.65;98288.22;4503535;31;20098;-77
2022/07/21 10:35:20;;;;;;;7.60;2.50;;;;;;;38.10;19.28;98291.88;4503689;31;20108;-77
2022/07/21 10:37:47;;;;;;;8.70;2.15;;;;;;;38.83;18.34;98297.69;4503811;31;20099;-76
2022/07/21 10:40:20;;;;;;;8.88;2.60;;;;;;;38.95;17.58;98287.66;4503279;31;20084;-77
2022/07/21 10:43:00;;;;;;;8.85;2.70;;;;;;;38.86;17.60;98289.13;4503801;31;20072;-77
2022/07/21 10:45:32;;;;;;;4.40;2.58;;;;;;;37.79;18.47;98282.28;4503348;31;20168;-77
2022/07/21 10:48:00;;;;;;;5.97;2.53;;;;;;;38.08;18.91;98291.28;4503591;31;20160;-77
2022/07/21 10:50:31;;;;;;;9.40;2.62;;;;;;;38.31;18.70;98279.66;4503623;31;20097;-76
2022/07/21 10:53:01;;;;;;;9.20;2.80;;;;;;;38.19;18.20;98273.47;4503547;31;20461;-76
2022/07/21 10:55:30;;;;;;;6.80;2.60;;;;;;;38.62;17.72;98274.88;4503627;31;20127;-77
2022/07/21 10:58:14;;;;;;;10.02;2.80;;;;;;;38.85;17.79;98284.78;4503543;31;20445;-77
2022/07/21 11:00:51;;;;;;;9.57;2.92;;;;;;;39.12;17.42;98271.53;4503130;31;20584;-76
2022/07/21 11:03:22;;;;;;;8.60;2.47;;;;;;;38.88;18.03;98278.91;4503525;31;20155;-77
2022/07/21 11:06:15;;;;;;;8.27;2.90;;;;;;;37.80;18.95;98273.16;4503604;31;20092;-77
2022/07/21 11:08:48;;;;;;;6.47;2.50;;;;;;;38.16;19.16;98263.97;4503049;31;20163;-76
2022/07/21 11:11:18;;;;;;;7.65;2.55;;;;;;;39.00;17.23;98266.16;4503469;31;20097;-76
2022/07/21 11:14:05;;;;;;;5.50;2.60;;;;;;;39.08;17.30;98267.66;4503034;31;20187;-77
2022/07/21 11:16:41;;;;;;;6.80;2.78;;;;;;;39.50;16.90;98260.00;4503439;31;20155;-76
2022/07/21 11:19:37;;;;;;;6.70;2.80;;;;;;;38.69;17.52;98268.31;4503392;31;20104;-76
2022/07/21 11:22:08;;;;;;;7.27;2.47;;;;;;;39.03;17.12;98258.41;4502965;31;20159;-76
2022/07/21 11:24:35;;;;;;;9.00;2.65;;;;;;;39.06;17.46;98255.22;4503098;31;20080;-79
2022/07/21 11:27:11;;;;;;;8.85;2.58;;;;;;;38.85;17.15;98253.25;4503307;31;20111;-77
2022/07/21 11:29:40;;;;;;;7.70;2.47;;;;;;;39.15;17.69;98258.38;4503057;31;20100;-78
2022/07/21 11:32:08;;;;;;;8.43;2.50;;;;;;;39.77;16.29;98260.16;4503431;31;20139;-78
2022/07/21 11:34:41;;;;;;;4.35;2.40;;;;;;;39.77;16.20;98258.28;4502827;31;20084;-78
2022/07/21 11:37:09;;;;;;;7.35;2.85;;;;;;;39.92;16.52;98255.78;4502299;31;20126;-78
2022/07/21 11:39:57;;;;;;;9.13;2.50;;;;;;;39.38;16.59;98252.00;4503872;31;20104;-78
2022/07/21 11:42:25;;;;;;;5.82;2.50;;;;;;;39.65;16.35;98254.03;4503152;31;20084;-78
2022/07/21 11:44:55;;;;;;;4.80;2.30;;;;;;;39.58;16.10;98259.62;4502057;31;20106;-77